sensor_id;sensor_type;location;lat;lon;timestamp;P1;durP1;ratioP1;P2;durP2;ratioP2
58071;SDS011;60383;46.626;18.866;2023-06-04T00:02:09;1.58;;;1.00;;
58071;SDS011;60383;46.626;18.866;2023-06-04T00:04:35;1.02;;;0.85;;
58071;SDS011;60383;46.626;18.866;2023-06-04T00:07:01;1.58;;;0.95;;
58071;SDS011;60383;46.626;18.866;2023-06-04T00:09:26;1.02;;;0.90;;
58071;SDS011;60383;46.626;18.866;2023-06-04T00:11:51;1.73;;;0.93;;
58071;SDS011;60383;46.626;18.866;2023-06-04T00:14:17;1.65;;;1.05;;
58071;SDS011;60383;46.626;18.866;2023-06-04T00:16:43;1.70;;;1.00;;
58071;SDS011;60383;46.626;18.866;2023-06-04T00:19:08;1.13;;;1.02;;
58071;SDS011;60383;46.626;18.866;2023-06-04T00:21:34;1.77;;;0.90;;
58071;SDS011;60383;46.626;18.866;2023-06-04T00:24:00;1.20;;;1.08;;
58071;SDS011;60383;46.626;18.866;2023-06-04T00:26:26;1.60;;;0.88;;
58071;SDS011;60383;46.626;18.866;2023-06-04T00:28:53;1.13;;;1.00;;
58071;SDS011;60383;46.626;18.866;2023-06-04T00:31:20;1.58;;;0.88;;
58071;SDS011;60383;46.626;18.866;2023-06-04T00:33:46;1.08;;;0.95;;
58071;SDS011;60383;46.626;18.866;2023-06-04T00:36:12;1.25;;;0.90;;
58071;SDS011;60383;46.626;18.866;2023-06-04T00:38:38;1.63;;;0.82;;
58071;SDS011;60383;46.626;18.866;2023-06-04T00:41:03;2.78;;;0.90;;
58071;SDS011;60383;46.626;18.866;2023-06-04T00:43:29;1.08;;;0.85;;
58071;SDS011;60383;46.626;18.866;2023-06-04T00:45:56;1.23;;;0.90;;
58071;SDS011;60383;46.626;18.866;2023-06-04T00:48:22;1.20;;;0.82;;
58071;SDS011;60383;46.626;18.866;2023-06-04T00:50:48;2.70;;;1.05;;
58071;SDS011;60383;46.626;18.866;2023-06-04T00:53:14;2.78;;;1.05;;
58071;SDS011;60383;46.626;18.866;2023-06-04T00:55:40;2.03;;;0.77;;
58071;SDS011;60383;46.626;18.866;2023-06-04T00:58:06;2.08;;;1.00;;
58071;SDS011;60383;46.626;18.866;2023-06-04T01:00:33;1.00;;;0.90;;
58071;SDS011;60383;46.626;18.866;2023-06-04T01:02:59;1.10;;;1.00;;
58071;SDS011;60383;46.626;18.866;2023-06-04T01:08:00;1.73;;;1.00;;
58071;SDS011;60383;46.626;18.866;2023-06-04T01:10:26;1.38;;;1.25;;
58071;SDS011;60383;46.626;18.866;2023-06-04T01:12:52;0.80;;;0.80;;
58071;SDS011;60383;46.626;18.866;2023-06-04T01:15:17;1.73;;;1.10;;
58071;SDS011;60383;46.626;18.866;2023-06-04T01:17:44;0.98;;;0.88;;
58071;SDS011;60383;46.626;18.866;2023-06-04T01:20:36;1.85;;;1.20;;
58071;SDS011;60383;46.626;18.866;2023-06-04T01:25:39;2.10;;;1.10;;
58071;SDS011;60383;46.626;18.866;2023-06-04T01:28:10;1.63;;;1.00;;
58071;SDS011;60383;46.626;18.866;2023-06-04T01:30:37;1.42;;;0.93;;
58071;SDS011;60383;46.626;18.866;2023-06-04T01:33:14;1.80;;;1.10;;
58071;SDS011;60383;46.626;18.866;2023-06-04T01:35:42;0.90;;;0.80;;
58071;SDS011;60383;46.626;18.866;2023-06-04T01:38:07;3.50;;;0.90;;
58071;SDS011;60383;46.626;18.866;2023-06-04T01:40:34;1.13;;;0.80;;
58071;SDS011;60383;46.626;18.866;2023-06-04T01:42:59;1.90;;;0.70;;
58071;SDS011;60383;46.626;18.866;2023-06-04T01:45:25;0.80;;;0.70;;
58071;SDS011;60383;46.626;18.866;2023-06-04T01:47:52;2.00;;;0.90;;
58071;SDS011;60383;46.626;18.866;2023-06-04T01:50:18;2.05;;;1.05;;
58071;SDS011;60383;46.626;18.866;2023-06-04T01:52:44;1.80;;;1.10;;
58071;SDS011;60383;46.626;18.866;2023-06-04T01:55:11;1.55;;;0.95;;
58071;SDS011;60383;46.626;18.866;2023-06-04T01:57:38;1.65;;;1.08;;
58071;SDS011;60383;46.626;18.866;2023-06-04T02:00:05;1.55;;;1.20;;
58071;SDS011;60383;46.626;18.866;2023-06-04T02:02:39;1.90;;;1.30;;
58071;SDS011;60383;46.626;18.866;2023-06-04T02:05:07;1.25;;;1.00;;
58071;SDS011;60383;46.626;18.866;2023-06-04T02:07:33;1.25;;;0.90;;
58071;SDS011;60383;46.626;18.866;2023-06-04T02:10:07;1.50;;;0.95;;
58071;SDS011;60383;46.626;18.866;2023-06-04T02:12:39;1.83;;;0.90;;
58071;SDS011;60383;46.626;18.866;2023-06-04T02:15:06;1.70;;;1.23;;
58071;SDS011;60383;46.626;18.866;2023-06-04T02:17:32;0.80;;;0.80;;
58071;SDS011;60383;46.626;18.866;2023-06-04T02:20:02;1.27;;;1.10;;
58071;SDS011;60383;46.626;18.866;2023-06-04T02:22:31;3.13;;;1.10;;
58071;SDS011;60383;46.626;18.866;2023-06-04T02:24:56;1.40;;;0.90;;
58071;SDS011;60383;46.626;18.866;2023-06-04T02:27:22;1.30;;;1.00;;
58071;SDS011;60383;46.626;18.866;2023-06-04T02:29:47;1.45;;;0.80;;
58071;SDS011;60383;46.626;18.866;2023-06-04T02:32:13;1.88;;;0.93;;
58071;SDS011;60383;46.626;18.866;2023-06-04T02:34:38;1.88;;;0.98;;
58071;SDS011;60383;46.626;18.866;2023-06-04T02:37:04;1.95;;;0.90;;
58071;SDS011;60383;46.626;18.866;2023-06-04T02:39:30;2.03;;;1.05;;
58071;SDS011;60383;46.626;18.866;2023-06-04T02:41:55;1.88;;;1.10;;
58071;SDS011;60383;46.626;18.866;2023-06-04T02:44:21;1.52;;;0.70;;
58071;SDS011;60383;46.626;18.866;2023-06-04T02:46:48;1.00;;;0.90;;
58071;SDS011;60383;46.626;18.866;2023-06-04T02:49:13;1.08;;;0.93;;
58071;SDS011;60383;46.626;18.866;2023-06-04T02:51:39;1.50;;;0.95;;
58071;SDS011;60383;46.626;18.866;2023-06-04T02:54:05;1.23;;;0.90;;
58071;SDS011;60383;46.626;18.866;2023-06-04T02:56:31;2.65;;;0.93;;
58071;SDS011;60383;46.626;18.866;2023-06-04T02:58:57;1.90;;;1.17;;
58071;SDS011;60383;46.626;18.866;2023-06-04T03:01:22;1.73;;;0.90;;
58071;SDS011;60383;46.626;18.866;2023-06-04T03:03:49;1.55;;;1.00;;
58071;SDS011;60383;46.626;18.866;2023-06-04T03:06:15;1.90;;;1.13;;
58071;SDS011;60383;46.626;18.866;2023-06-04T03:08:42;1.25;;;1.13;;
58071;SDS011;60383;46.626;18.866;2023-06-04T03:11:08;0.95;;;0.88;;
58071;SDS011;60383;46.626;18.866;2023-06-04T03:13:34;3.28;;;0.93;;
58071;SDS011;60383;46.626;18.866;2023-06-04T03:16:01;1.65;;;0.90;;
58071;SDS011;60383;46.626;18.866;2023-06-04T03:18:27;1.45;;;1.00;;
58071;SDS011;60383;46.626;18.866;2023-06-04T03:20:53;1.83;;;1.02;;
58071;SDS011;60383;46.626;18.866;2023-06-04T03:23:20;2.38;;;1.10;;
58071;SDS011;60383;46.626;18.866;2023-06-04T03:25:46;1.70;;;0.90;;
58071;SDS011;60383;46.626;18.866;2023-06-04T03:28:12;1.17;;;1.00;;
58071;SDS011;60383;46.626;18.866;2023-06-04T03:30:39;2.42;;;0.95;;
58071;SDS011;60383;46.626;18.866;2023-06-04T03:33:05;2.15;;;0.93;;
58071;SDS011;60383;46.626;18.866;2023-06-04T03:35:30;1.25;;;1.00;;
58071;SDS011;60383;46.626;18.866;2023-06-04T03:37:56;1.40;;;0.90;;
58071;SDS011;60383;46.626;18.866;2023-06-04T03:40:21;0.95;;;0.85;;
58071;SDS011;60383;46.626;18.866;2023-06-04T03:42:47;1.63;;;0.98;;
58071;SDS011;60383;46.626;18.866;2023-06-04T03:45:12;2.28;;;1.35;;
58071;SDS011;60383;46.626;18.866;2023-06-04T03:47:38;0.90;;;0.77;;
58071;SDS011;60383;46.626;18.866;2023-06-04T03:50:04;2.38;;;1.10;;
58071;SDS011;60383;46.626;18.866;2023-06-04T03:52:30;0.80;;;0.80;;
58071;SDS011;60383;46.626;18.866;2023-06-04T03:54:56;1.13;;;0.93;;
58071;SDS011;60383;46.626;18.866;2023-06-04T03:57:22;0.98;;;0.80;;
58071;SDS011;60383;46.626;18.866;2023-06-04T03:59:48;2.30;;;1.00;;
58071;SDS011;60383;46.626;18.866;2023-06-04T04:02:13;1.17;;;0.98;;
58071;SDS011;60383;46.626;18.866;2023-06-04T04:04:39;1.23;;;0.80;;
58071;SDS011;60383;46.626;18.866;2023-06-04T04:07:05;1.15;;;0.95;;
58071;SDS011;60383;46.626;18.866;2023-06-04T04:09:30;1.70;;;1.17;;
58071;SDS011;60383;46.626;18.866;2023-06-04T04:11:56;2.15;;;1.00;;
58071;SDS011;60383;46.626;18.866;2023-06-04T04:14:21;1.63;;;0.93;;
58071;SDS011;60383;46.626;18.866;2023-06-04T04:16:47;3.00;;;0.98;;
58071;SDS011;60383;46.626;18.866;2023-06-04T04:19:12;1.15;;;0.95;;
58071;SDS011;60383;46.626;18.866;2023-06-04T04:21:38;1.08;;;0.70;;
58071;SDS011;60383;46.626;18.866;2023-06-04T04:24:04;1.05;;;0.77;;
58071;SDS011;60383;46.626;18.866;2023-06-04T04:26:30;1.30;;;0.93;;
58071;SDS011;60383;46.626;18.866;2023-06-04T04:28:55;0.93;;;0.90;;
58071;SDS011;60383;46.626;18.866;2023-06-04T04:31:26;2.15;;;1.08;;
58071;SDS011;60383;46.626;18.866;2023-06-04T04:33:52;0.93;;;0.77;;
58071;SDS011;60383;46.626;18.866;2023-06-04T04:36:20;1.35;;;1.00;;
58071;SDS011;60383;46.626;18.866;2023-06-04T04:38:46;1.00;;;0.77;;
58071;SDS011;60383;46.626;18.866;2023-06-04T04:41:11;1.98;;;1.08;;
58071;SDS011;60383;46.626;18.866;2023-06-04T04:43:37;1.02;;;0.85;;
58071;SDS011;60383;46.626;18.866;2023-06-04T04:46:06;3.35;;;0.80;;
58071;SDS011;60383;46.626;18.866;2023-06-04T04:48:31;1.25;;;0.82;;
58071;SDS011;60383;46.626;18.866;2023-06-04T04:50:57;1.20;;;1.10;;
58071;SDS011;60383;46.626;18.866;2023-06-04T04:53:23;1.63;;;0.80;;
58071;SDS011;60383;46.626;18.866;2023-06-04T04:55:49;1.58;;;1.00;;
58071;SDS011;60383;46.626;18.866;2023-06-04T04:58:15;1.42;;;0.98;;
58071;SDS011;60383;46.626;18.866;2023-06-04T05:00:41;1.25;;;1.00;;
58071;SDS011;60383;46.626;18.866;2023-06-04T05:03:07;2.92;;;0.80;;
58071;SDS011;60383;46.626;18.866;2023-06-04T05:05:32;1.80;;;1.02;;
58071;SDS011;60383;46.626;18.866;2023-06-04T05:07:58;1.48;;;1.00;;
58071;SDS011;60383;46.626;18.866;2023-06-04T05:10:24;3.83;;;0.90;;
58071;SDS011;60383;46.626;18.866;2023-06-04T05:12:53;1.08;;;0.80;;
58071;SDS011;60383;46.626;18.866;2023-06-04T05:17:45;1.85;;;0.80;;
58071;SDS011;60383;46.626;18.866;2023-06-04T05:20:12;1.58;;;1.02;;
58071;SDS011;60383;46.626;18.866;2023-06-04T05:22:38;2.85;;;1.00;;
58071;SDS011;60383;46.626;18.866;2023-06-04T05:25:04;1.10;;;1.00;;
58071;SDS011;60383;46.626;18.866;2023-06-04T05:27:31;2.35;;;0.90;;
58071;SDS011;60383;46.626;18.866;2023-06-04T05:30:00;1.80;;;1.00;;
58071;SDS011;60383;46.626;18.866;2023-06-04T05:32:28;1.23;;;0.90;;
58071;SDS011;60383;46.626;18.866;2023-06-04T05:34:54;1.40;;;0.90;;
58071;SDS011;60383;46.626;18.866;2023-06-04T05:37:23;1.25;;;0.93;;
58071;SDS011;60383;46.626;18.866;2023-06-04T05:39:53;1.13;;;0.95;;
58071;SDS011;60383;46.626;18.866;2023-06-04T05:42:20;2.15;;;1.30;;
58071;SDS011;60383;46.626;18.866;2023-06-04T05:44:46;1.58;;;1.00;;
58071;SDS011;60383;46.626;18.866;2023-06-04T05:47:11;1.27;;;0.95;;
58071;SDS011;60383;46.626;18.866;2023-06-04T05:49:37;2.08;;;1.40;;
58071;SDS011;60383;46.626;18.866;2023-06-04T05:52:02;1.20;;;0.90;;
58071;SDS011;60383;46.626;18.866;2023-06-04T05:54:28;1.10;;;0.90;;
58071;SDS011;60383;46.626;18.866;2023-06-04T05:56:55;1.08;;;0.88;;
58071;SDS011;60383;46.626;18.866;2023-06-04T05:59:21;2.45;;;1.40;;
58071;SDS011;60383;46.626;18.866;2023-06-04T06:01:46;2.33;;;1.08;;
58071;SDS011;60383;46.626;18.866;2023-06-04T06:04:13;1.10;;;1.00;;
58071;SDS011;60383;46.626;18.866;2023-06-04T06:06:39;1.20;;;0.95;;
58071;SDS011;60383;46.626;18.866;2023-06-04T06:09:04;3.47;;;1.45;;
58071;SDS011;60383;46.626;18.866;2023-06-04T06:11:30;1.83;;;0.95;;
58071;SDS011;60383;46.626;18.866;2023-06-04T06:13:56;1.48;;;1.25;;
58071;SDS011;60383;46.626;18.866;2023-06-04T06:16:21;1.30;;;1.00;;
58071;SDS011;60383;46.626;18.866;2023-06-04T06:18:47;3.40;;;1.00;;
58071;SDS011;60383;46.626;18.866;2023-06-04T06:21:12;2.33;;;1.02;;
58071;SDS011;60383;46.626;18.866;2023-06-04T06:23:38;1.05;;;0.98;;
58071;SDS011;60383;46.626;18.866;2023-06-04T06:26:03;2.38;;;1.10;;
58071;SDS011;60383;46.626;18.866;2023-06-04T06:28:33;3.63;;;0.90;;
58071;SDS011;60383;46.626;18.866;2023-06-04T06:30:58;2.30;;;1.10;;
58071;SDS011;60383;46.626;18.866;2023-06-04T06:33:24;1.95;;;0.80;;
58071;SDS011;60383;46.626;18.866;2023-06-04T06:35:49;1.73;;;1.08;;
58071;SDS011;60383;46.626;18.866;2023-06-04T06:38:15;1.90;;;1.08;;
58071;SDS011;60383;46.626;18.866;2023-06-04T06:40:41;1.25;;;1.00;;
58071;SDS011;60383;46.626;18.866;2023-06-04T06:43:06;1.30;;;1.02;;
58071;SDS011;60383;46.626;18.866;2023-06-04T06:45:32;1.80;;;1.02;;
58071;SDS011;60383;46.626;18.866;2023-06-04T06:47:57;1.58;;;1.00;;
58071;SDS011;60383;46.626;18.866;2023-06-04T06:50:23;1.35;;;1.08;;
58071;SDS011;60383;46.626;18.866;2023-06-04T06:52:49;1.20;;;0.90;;
58071;SDS011;60383;46.626;18.866;2023-06-04T06:55:14;2.45;;;1.20;;
58071;SDS011;60383;46.626;18.866;2023-06-04T06:57:40;1.40;;;0.90;;
58071;SDS011;60383;46.626;18.866;2023-06-04T07:00:06;1.73;;;0.90;;
58071;SDS011;60383;46.626;18.866;2023-06-04T07:02:32;1.45;;;1.00;;
58071;SDS011;60383;46.626;18.866;2023-06-04T07:04:58;1.27;;;1.10;;
58071;SDS011;60383;46.626;18.866;2023-06-04T07:07:23;2.25;;;0.98;;
58071;SDS011;60383;46.626;18.866;2023-06-04T07:09:49;2.50;;;0.85;;
58071;SDS011;60383;46.626;18.866;2023-06-04T07:12:15;2.08;;;0.85;;
58071;SDS011;60383;46.626;18.866;2023-06-04T07:14:42;2.08;;;1.00;;
58071;SDS011;60383;46.626;18.866;2023-06-04T07:17:07;1.60;;;1.20;;
58071;SDS011;60383;46.626;18.866;2023-06-04T07:19:33;2.05;;;1.20;;
58071;SDS011;60383;46.626;18.866;2023-06-04T07:21:58;1.23;;;1.00;;
58071;SDS011;60383;46.626;18.866;2023-06-04T07:24:24;2.65;;;1.02;;
58071;SDS011;60383;46.626;18.866;2023-06-04T07:26:49;1.83;;;0.95;;
58071;SDS011;60383;46.626;18.866;2023-06-04T07:29:15;1.52;;;1.10;;
58071;SDS011;60383;46.626;18.866;2023-06-04T07:31:41;2.05;;;0.85;;
58071;SDS011;60383;46.626;18.866;2023-06-04T07:34:07;1.48;;;0.80;;
58071;SDS011;60383;46.626;18.866;2023-06-04T07:36:32;1.00;;;0.90;;
58071;SDS011;60383;46.626;18.866;2023-06-04T07:38:58;1.13;;;0.70;;
58071;SDS011;60383;46.626;18.866;2023-06-04T07:41:24;0.80;;;0.80;;
58071;SDS011;60383;46.626;18.866;2023-06-04T07:43:51;0.70;;;0.70;;
58071;SDS011;60383;46.626;18.866;2023-06-04T07:46:16;1.23;;;1.00;;
58071;SDS011;60383;46.626;18.866;2023-06-04T07:48:44;1.77;;;0.85;;
58071;SDS011;60383;46.626;18.866;2023-06-04T07:51:10;1.55;;;1.00;;
58071;SDS011;60383;46.626;18.866;2023-06-04T07:53:38;1.23;;;0.90;;
58071;SDS011;60383;46.626;18.866;2023-06-04T07:56:05;1.17;;;0.93;;
58071;SDS011;60383;46.626;18.866;2023-06-04T07:58:30;1.08;;;0.90;;
58071;SDS011;60383;46.626;18.866;2023-06-04T08:00:56;1.25;;;0.93;;
58071;SDS011;60383;46.626;18.866;2023-06-04T08:03:22;2.17;;;0.90;;
58071;SDS011;60383;46.626;18.866;2023-06-04T08:05:48;1.15;;;0.90;;
58071;SDS011;60383;46.626;18.866;2023-06-04T08:08:13;1.10;;;1.00;;
58071;SDS011;60383;46.626;18.866;2023-06-04T08:10:39;2.65;;;1.27;;
58071;SDS011;60383;46.626;18.866;2023-06-04T08:13:05;1.75;;;0.80;;
58071;SDS011;60383;46.626;18.866;2023-06-04T08:15:30;1.38;;;0.98;;
58071;SDS011;60383;46.626;18.866;2023-06-04T08:17:56;4.72;;;0.90;;
58071;SDS011;60383;46.626;18.866;2023-06-04T08:20:22;2.75;;;1.02;;
58071;SDS011;60383;46.626;18.866;2023-06-04T08:22:48;1.58;;;0.80;;
58071;SDS011;60383;46.626;18.866;2023-06-04T08:25:14;1.50;;;0.80;;
58071;SDS011;60383;46.626;18.866;2023-06-04T08:27:40;1.92;;;1.02;;
58071;SDS011;60383;46.626;18.866;2023-06-04T08:30:06;3.47;;;0.98;;
58071;SDS011;60383;46.626;18.866;2023-06-04T08:32:33;1.83;;;0.88;;
58071;SDS011;60383;46.626;18.866;2023-06-04T08:34:58;1.42;;;0.88;;
58071;SDS011;60383;46.626;18.866;2023-06-04T08:37:24;2.75;;;1.00;;
58071;SDS011;60383;46.626;18.866;2023-06-04T08:39:50;1.23;;;0.90;;
58071;SDS011;60383;46.626;18.866;2023-06-04T08:42:18;1.33;;;0.73;;
58071;SDS011;60383;46.626;18.866;2023-06-04T08:44:52;2.60;;;0.93;;
58071;SDS011;60383;46.626;18.866;2023-06-04T08:47:19;2.35;;;0.98;;
58071;SDS011;60383;46.626;18.866;2023-06-04T08:49:47;0.90;;;0.82;;
58071;SDS011;60383;46.626;18.866;2023-06-04T08:52:15;1.65;;;0.75;;
58071;SDS011;60383;46.626;18.866;2023-06-04T08:54:41;0.75;;;0.75;;
58071;SDS011;60383;46.626;18.866;2023-06-04T08:57:06;1.65;;;1.10;;
58071;SDS011;60383;46.626;18.866;2023-06-04T08:59:33;2.45;;;0.80;;
58071;SDS011;60383;46.626;18.866;2023-06-04T09:01:59;2.15;;;0.95;;
58071;SDS011;60383;46.626;18.866;2023-06-04T09:04:25;1.45;;;0.80;;
58071;SDS011;60383;46.626;18.866;2023-06-04T09:06:51;0.73;;;0.63;;
58071;SDS011;60383;46.626;18.866;2023-06-04T09:09:18;1.95;;;1.10;;
58071;SDS011;60383;46.626;18.866;2023-06-04T09:11:51;1.38;;;0.90;;
58071;SDS011;60383;46.626;18.866;2023-06-04T09:14:18;1.30;;;1.00;;
58071;SDS011;60383;46.626;18.866;2023-06-04T09:16:47;1.50;;;0.98;;
58071;SDS011;60383;46.626;18.866;2023-06-04T09:19:17;1.48;;;0.90;;
58071;SDS011;60383;46.626;18.866;2023-06-04T09:24:12;1.05;;;0.88;;
58071;SDS011;60383;46.626;18.866;2023-06-04T09:26:37;1.90;;;1.08;;
58071;SDS011;60383;46.626;18.866;2023-06-04T09:29:03;1.50;;;0.90;;
58071;SDS011;60383;46.626;18.866;2023-06-04T09:31:31;0.95;;;0.80;;
58071;SDS011;60383;46.626;18.866;2023-06-04T09:34:02;1.20;;;0.77;;
58071;SDS011;60383;46.626;18.866;2023-06-04T09:36:31;1.65;;;0.95;;
58071;SDS011;60383;46.626;18.866;2023-06-04T09:41:24;1.17;;;0.80;;
58071;SDS011;60383;46.626;18.866;2023-06-04T09:43:51;1.02;;;0.80;;
58071;SDS011;60383;46.626;18.866;2023-06-04T09:46:24;1.35;;;1.05;;
58071;SDS011;60383;46.626;18.866;2023-06-04T09:48:58;2.13;;;1.00;;
58071;SDS011;60383;46.626;18.866;2023-06-04T09:51:25;0.98;;;0.90;;
58071;SDS011;60383;46.626;18.866;2023-06-04T09:53:55;1.08;;;0.98;;
58071;SDS011;60383;46.626;18.866;2023-06-04T09:56:21;2.00;;;1.00;;
58071;SDS011;60383;46.626;18.866;2023-06-04T09:58:48;1.40;;;0.98;;
58071;SDS011;60383;46.626;18.866;2023-06-04T10:01:15;1.63;;;1.00;;
58071;SDS011;60383;46.626;18.866;2023-06-04T10:03:42;1.58;;;1.15;;
58071;SDS011;60383;46.626;18.866;2023-06-04T10:06:11;2.67;;;1.25;;
58071;SDS011;60383;46.626;18.866;2023-06-04T10:08:40;1.70;;;1.35;;
58071;SDS011;60383;46.626;18.866;2023-06-04T10:11:07;1.45;;;1.05;;
58071;SDS011;60383;46.626;18.866;2023-06-04T10:13:41;1.60;;;1.30;;
58071;SDS011;60383;46.626;18.866;2023-06-04T10:16:29;1.50;;;1.20;;
58071;SDS011;60383;46.626;18.866;2023-06-04T10:18:56;1.23;;;1.05;;
58071;SDS011;60383;46.626;18.866;2023-06-04T10:21:22;2.53;;;1.30;;
58071;SDS011;60383;46.626;18.866;2023-06-04T10:23:48;1.95;;;1.20;;
58071;SDS011;60383;46.626;18.866;2023-06-04T10:26:15;1.30;;;1.20;;
58071;SDS011;60383;46.626;18.866;2023-06-04T10:28:41;1.20;;;0.95;;
58071;SDS011;60383;46.626;18.866;2023-06-04T10:31:10;1.15;;;1.00;;
58071;SDS011;60383;46.626;18.866;2023-06-04T10:33:37;1.67;;;1.17;;
58071;SDS011;60383;46.626;18.866;2023-06-04T10:36:25;4.15;;;1.02;;
58071;SDS011;60383;46.626;18.866;2023-06-04T10:38:51;1.30;;;1.20;;
58071;SDS011;60383;46.626;18.866;2023-06-04T10:41:20;1.70;;;1.20;;
58071;SDS011;60383;46.626;18.866;2023-06-04T10:43:48;2.25;;;1.30;;
58071;SDS011;60383;46.626;18.866;2023-06-04T10:46:15;1.75;;;1.27;;
58071;SDS011;60383;46.626;18.866;2023-06-04T10:48:51;1.92;;;1.25;;
58071;SDS011;60383;46.626;18.866;2023-06-04T10:51:33;1.63;;;1.00;;
58071;SDS011;60383;46.626;18.866;2023-06-04T10:54:02;2.47;;;1.17;;
58071;SDS011;60383;46.626;18.866;2023-06-04T10:56:29;2.00;;;1.50;;
58071;SDS011;60383;46.626;18.866;2023-06-04T10:59:00;2.72;;;1.73;;
58071;SDS011;60383;46.626;18.866;2023-06-04T11:01:37;2.35;;;1.40;;
58071;SDS011;60383;46.626;18.866;2023-06-04T11:04:03;2.10;;;1.33;;
58071;SDS011;60383;46.626;18.866;2023-06-04T11:06:29;1.90;;;1.33;;
58071;SDS011;60383;46.626;18.866;2023-06-04T11:09:04;1.95;;;1.30;;
58071;SDS011;60383;46.626;18.866;2023-06-04T11:11:31;1.60;;;1.02;;
58071;SDS011;60383;46.626;18.866;2023-06-04T11:14:09;2.65;;;1.50;;
58071;SDS011;60383;46.626;18.866;2023-06-04T11:16:37;2.00;;;1.20;;
58071;SDS011;60383;46.626;18.866;2023-06-04T11:19:03;1.35;;;1.20;;
58071;SDS011;60383;46.626;18.866;2023-06-04T11:21:29;1.42;;;1.20;;
58071;SDS011;60383;46.626;18.866;2023-06-04T11:23:57;2.10;;;1.40;;
58071;SDS011;60383;46.626;18.866;2023-06-04T11:26:32;1.83;;;1.30;;
58071;SDS011;60383;46.626;18.866;2023-06-04T11:28:59;1.52;;;1.10;;
58071;SDS011;60383;46.626;18.866;2023-06-04T11:31:25;1.98;;;1.30;;
58071;SDS011;60383;46.626;18.866;2023-06-04T11:33:50;3.22;;;1.80;;
58071;SDS011;60383;46.626;18.866;2023-06-04T11:36:23;2.97;;;1.45;;
58071;SDS011;60383;46.626;18.866;2023-06-04T11:38:59;2.65;;;1.80;;
58071;SDS011;60383;46.626;18.866;2023-06-04T11:41:27;1.92;;;1.40;;
58071;SDS011;60383;46.626;18.866;2023-06-04T11:43:55;2.05;;;1.40;;
58071;SDS011;60383;46.626;18.866;2023-06-04T11:46:20;1.42;;;1.30;;
58071;SDS011;60383;46.626;18.866;2023-06-04T11:48:46;1.45;;;1.30;;
58071;SDS011;60383;46.626;18.866;2023-06-04T11:51:12;2.20;;;1.42;;
58071;SDS011;60383;46.626;18.866;2023-06-04T11:53:37;2.15;;;1.40;;
58071;SDS011;60383;46.626;18.866;2023-06-04T11:56:04;1.83;;;1.48;;
58071;SDS011;60383;46.626;18.866;2023-06-04T11:58:30;1.52;;;1.17;;
58071;SDS011;60383;46.626;18.866;2023-06-04T12:00:57;3.25;;;1.50;;
58071;SDS011;60383;46.626;18.866;2023-06-04T12:03:37;1.45;;;1.20;;
58071;SDS011;60383;46.626;18.866;2023-06-04T12:08:53;1.20;;;1.10;;
58071;SDS011;60383;46.626;18.866;2023-06-04T12:11:31;2.03;;;1.27;;
58071;SDS011;60383;46.626;18.866;2023-06-04T12:14:16;1.70;;;1.23;;
58071;SDS011;60383;46.626;18.866;2023-06-04T12:16:55;2.63;;;1.35;;
58071;SDS011;60383;46.626;18.866;2023-06-04T12:19:47;1.75;;;1.40;;
58071;SDS011;60383;46.626;18.866;2023-06-04T12:22:14;2.67;;;1.50;;
58071;SDS011;60383;46.626;18.866;2023-06-04T12:24:50;1.40;;;1.30;;
58071;SDS011;60383;46.626;18.866;2023-06-04T12:27:21;1.95;;;1.67;;
58071;SDS011;60383;46.626;18.866;2023-06-04T12:29:57;1.42;;;1.33;;
58071;SDS011;60383;46.626;18.866;2023-06-04T12:32:23;2.13;;;1.30;;
58071;SDS011;60383;46.626;18.866;2023-06-04T12:34:49;2.30;;;1.60;;
58071;SDS011;60383;46.626;18.866;2023-06-04T12:37:14;1.70;;;1.40;;
58071;SDS011;60383;46.626;18.866;2023-06-04T12:39:40;1.60;;;1.50;;
58071;SDS011;60383;46.626;18.866;2023-06-04T12:42:06;2.13;;;1.60;;
58071;SDS011;60383;46.626;18.866;2023-06-04T12:44:35;1.65;;;1.25;;
58071;SDS011;60383;46.626;18.866;2023-06-04T12:47:01;2.25;;;1.30;;
58071;SDS011;60383;46.626;18.866;2023-06-04T12:49:28;1.27;;;1.00;;
58071;SDS011;60383;46.626;18.866;2023-06-04T12:51:53;3.17;;;1.60;;
58071;SDS011;60383;46.626;18.866;2023-06-04T12:54:19;1.77;;;1.50;;
58071;SDS011;60383;46.626;18.866;2023-06-04T12:56:45;1.50;;;1.30;;
58071;SDS011;60383;46.626;18.866;2023-06-04T12:59:10;2.00;;;1.30;;
58071;SDS011;60383;46.626;18.866;2023-06-04T13:01:36;1.83;;;1.42;;
58071;SDS011;60383;46.626;18.866;2023-06-04T13:04:04;2.33;;;1.38;;
58071;SDS011;60383;46.626;18.866;2023-06-04T13:06:31;1.75;;;1.33;;
58071;SDS011;60383;46.626;18.866;2023-06-04T13:08:57;1.55;;;1.17;;
58071;SDS011;60383;46.626;18.866;2023-06-04T13:11:22;2.22;;;1.35;;
58071;SDS011;60383;46.626;18.866;2023-06-04T13:13:48;2.10;;;1.60;;
58071;SDS011;60383;46.626;18.866;2023-06-04T13:16:14;2.60;;;1.30;;
58071;SDS011;60383;46.626;18.866;2023-06-04T13:18:39;2.55;;;1.63;;
58071;SDS011;60383;46.626;18.866;2023-06-04T13:21:05;1.50;;;1.40;;
58071;SDS011;60383;46.626;18.866;2023-06-04T13:23:30;1.98;;;1.33;;
58071;SDS011;60383;46.626;18.866;2023-06-04T13:25:56;2.05;;;1.33;;
58071;SDS011;60383;46.626;18.866;2023-06-04T13:28:22;2.28;;;1.92;;
58071;SDS011;60383;46.626;18.866;2023-06-04T13:30:48;1.80;;;1.30;;
58071;SDS011;60383;46.626;18.866;2023-06-04T13:33:13;2.22;;;1.75;;
58071;SDS011;60383;46.626;18.866;2023-06-04T13:35:39;1.90;;;1.48;;
58071;SDS011;60383;46.626;18.866;2023-06-04T13:38:04;1.92;;;1.60;;
58071;SDS011;60383;46.626;18.866;2023-06-04T13:40:34;2.08;;;1.30;;
58071;SDS011;60383;46.626;18.866;2023-06-04T13:43:00;1.70;;;1.50;;
58071;SDS011;60383;46.626;18.866;2023-06-04T13:45:26;2.95;;;1.60;;
58071;SDS011;60383;46.626;18.866;2023-06-04T13:47:52;5.28;;;1.70;;
58071;SDS011;60383;46.626;18.866;2023-06-04T13:50:17;2.20;;;1.30;;
58071;SDS011;60383;46.626;18.866;2023-06-04T13:52:43;2.15;;;1.58;;
58071;SDS011;60383;46.626;18.866;2023-06-04T13:55:08;2.08;;;1.80;;
58071;SDS011;60383;46.626;18.866;2023-06-04T13:57:34;2.15;;;1.50;;
58071;SDS011;60383;46.626;18.866;2023-06-04T13:59:59;2.97;;;1.77;;
58071;SDS011;60383;46.626;18.866;2023-06-04T14:02:25;2.55;;;1.70;;
58071;SDS011;60383;46.626;18.866;2023-06-04T14:04:52;2.83;;;1.83;;
58071;SDS011;60383;46.626;18.866;2023-06-04T14:07:19;2.55;;;1.80;;
58071;SDS011;60383;46.626;18.866;2023-06-04T14:09:45;2.50;;;1.40;;
58071;SDS011;60383;46.626;18.866;2023-06-04T14:12:10;2.88;;;1.75;;
58071;SDS011;60383;46.626;18.866;2023-06-04T14:14:36;2.22;;;1.60;;
58071;SDS011;60383;46.626;18.866;2023-06-04T14:17:05;1.67;;;1.50;;
58071;SDS011;60383;46.626;18.866;2023-06-04T14:19:34;2.50;;;1.48;;
58071;SDS011;60383;46.626;18.866;2023-06-04T14:22:00;2.25;;;1.60;;
58071;SDS011;60383;46.626;18.866;2023-06-04T14:24:27;2.05;;;1.67;;
58071;SDS011;60383;46.626;18.866;2023-06-04T14:26:52;1.80;;;1.50;;
58071;SDS011;60383;46.626;18.866;2023-06-04T14:29:18;2.45;;;1.80;;
58071;SDS011;60383;46.626;18.866;2023-06-04T14:31:44;2.55;;;1.70;;
58071;SDS011;60383;46.626;18.866;2023-06-04T14:34:10;2.78;;;1.45;;
58071;SDS011;60383;46.626;18.866;2023-06-04T14:36:36;2.65;;;1.80;;
58071;SDS011;60383;46.626;18.866;2023-06-04T14:39:01;1.58;;;1.48;;
58071;SDS011;60383;46.626;18.866;2023-06-04T14:41:27;1.90;;;1.67;;
58071;SDS011;60383;46.626;18.866;2023-06-04T14:43:53;2.03;;;1.30;;
58071;SDS011;60383;46.626;18.866;2023-06-04T14:46:18;2.45;;;1.50;;
58071;SDS011;60383;46.626;18.866;2023-06-04T14:48:44;2.30;;;1.70;;